Flight Track Log - Related Links

Times and Time Zones

All times are in EDT time to prevent confusion due to time zone crossing. See the SKW6306 flight status page for this flight to view local times or setup timezone preferences in your user account.

Time Position Orientation Groundspeed Altitude Reporting Facility
EDT Latitude Longitude Course Direction KTS MPH feet Rate Location/Type
Thu 05:38:19 PM 52.1833 -106.8667 288° West 190 219 4,700  Level Winnipeg Center
Thu 05:39:00 PM 51.8344 -106.8813 199° South  Level FlightAware Approximate
Thu 05:39:19 PM 52.1667 -106.9833 257° West 230 265 6,600  Level Winnipeg Center
Thu 05:40:00 PM 51.7218 -106.9392 197° South  Level FlightAware Approximate
Thu 05:40:19 PM 52.1500 -107.0833 255° West 260 299 9,000  Level Winnipeg Center
Thu 05:41:00 PM 51.6091 -106.9909 212° Southwest  Level FlightAware Approximate
Thu 05:41:19 PM 52.0833 -107.1500 212° Southwest 280 322 11,500  Level Winnipeg Center
Thu 05:42:00 PM 51.4981 -107.0545 198° South  Level FlightAware Approximate
Thu 05:42:19 PM 52.0000 -107.1500 180° South 300 345 13,000  Level Winnipeg Center
Thu 05:43:19 PM 51.9167 -107.2000 200° South 340 391 14,200 1,400 Climbing Winnipeg Center
Thu 05:44:19 PM 51.8000 -107.2167 185° South 360 414 15,800 1,750 Climbing Winnipeg Center
Thu 05:45:19 PM 51.7000 -107.2500 192° South 360 414 17,700 1,700 Climbing Winnipeg Center
Thu 05:46:19 PM 51.6167 -107.2833 194° South 360 414 19,200 1,300 Climbing Winnipeg Center
Thu 05:47:19 PM 51.5167 -107.3167 192° South 360 414 20,300 1,050 Climbing Winnipeg Center
Thu 05:48:19 PM 51.4000 -107.3667 195° South 370 426 21,300 950 Climbing Winnipeg Center
Thu 05:49:19 PM 51.3000 -107.4000 192° South 380 437 22,200 1,000 Climbing Winnipeg Center
Thu 05:50:19 PM 51.2000 -107.4333 192° South 380 437 23,300 1,050 Climbing Winnipeg Center
Thu 05:51:19 PM 51.1000 -107.4667 192° South 380 437 24,300 900 Climbing Winnipeg Center
Thu 05:52:19 PM 50.9833 -107.5000 190° South 380 437 25,100 650 Climbing Winnipeg Center
Thu 05:53:19 PM 50.8833 -107.5167 186° South 390 449 25,600 550 Climbing Winnipeg Center
Thu 05:54:19 PM 50.7833 -107.5833 203° Southwest 400 460 26,200 500 Climbing Winnipeg Center
Thu 05:55:19 PM 50.6833 -107.6000 186° South 400 460 26,600 500 Climbing Winnipeg Center
Thu 05:56:19 PM 50.5500 -107.6333 189° South 410 472 27,200 500 Climbing Winnipeg Center
Thu 05:57:19 PM 50.4500 -107.6667 192° South 410 472 27,600 450 Climbing Winnipeg Center
Thu 05:58:19 PM 50.3500 -107.7167 198° South 410 472 28,100 500 Climbing Winnipeg Center
Thu 05:59:19 PM 50.2333 -107.7333 185° South 410 472 28,600 500 Climbing Winnipeg Center
Thu 06:00:19 PM 50.1167 -107.7333 180° South 420 483 29,100 550 Climbing Winnipeg Center
Thu 06:01:19 PM 49.9833 -107.7667 189° South 420 483 29,700 550 Climbing Winnipeg Center
Thu 06:02:19 PM 49.8667 -107.7667 180° South 420 483 30,200 500 Climbing Winnipeg Center
Thu 06:03:19 PM 49.7667 -107.8000 192° South 420 483 30,700 500 Climbing Winnipeg Center
Thu 06:04:19 PM 49.6500 -107.7833 175° South 420 483 31,200 500 Climbing Winnipeg Center
Thu 06:05:19 PM 49.5333 -107.8167 191° South 420 483 31,700 450 Climbing Winnipeg Center
Thu 06:06:19 PM 49.4333 -107.8167 180° South 410 472 32,100 350 Climbing Winnipeg Center
Thu 06:07:19 PM 49.3000 -107.8500 189° South 410 472 32,400 300 Climbing Winnipeg Center
Thu 06:08:19 PM 49.1833 -107.8500 180° South 410 472 32,700 300 Climbing Winnipeg Center
Thu 06:09:19 PM 49.0667 -107.8667 185° South 410 472 33,000 150 Climbing Winnipeg Center
Thu 06:10:19 PM 48.9667 -107.8667 180° South 410 472 33,000  Level Winnipeg Center
Thu 06:11:19 PM 48.8333 -107.8833 185° South 420 483 33,000  Level Winnipeg Center
Thu 06:11:57 PM 48.8069 -107.8608 151° Southeast 419 482 33,000  Level Salt Lake Center
Thu 06:12:59 PM 48.6892 -107.8744 184° South 422 486 33,000  Level Salt Lake Center
Thu 06:14:01 PM 48.5453 -107.8897 184° South 429 494 33,000  Level Salt Lake Center
Thu 06:15:03 PM 48.4258 -107.9022 184° South 430 495 33,000  Level Salt Lake Center
Thu 06:16:05 PM 48.3075 -107.9161 184° South 429 494 33,000  Level Salt Lake Center
Thu 06:17:07 PM 48.1883 -107.9289 184° South 430 495 33,000  Level Salt Lake Center
Thu 06:18:09 PM 48.0675 -107.9414 184° South 432 497 33,000  Level Salt Lake Center
Thu 06:19:11 PM 47.9506 -107.9542 184° South 429 494 33,000  Level Salt Lake Center
Thu 06:20:13 PM 47.8317 -107.9664 184° South 428 493 33,000  Level Salt Lake Center
Thu 06:21:15 PM 47.6872 -107.9811 184° South 431 496 33,000  Level Salt Lake Center
Thu 06:22:17 PM 47.5675 -107.9942 184° South 431 496 33,000  Level Salt Lake Center
Thu 06:23:19 PM 47.4439 -107.9789 175° South 442 509 33,000  Level Salt Lake Center
Thu 06:24:21 PM 47.3192 -107.9339 166° South 456 525 33,000  Level Salt Lake Center
Thu 06:25:23 PM 47.1989 -107.8894 166° South 454 522 33,000  Level Salt Lake Center
Thu 06:26:25 PM 47.0656 -107.8400 166° South 455 524 33,000  Level Salt Lake Center
Thu 06:27:27 PM 46.9422 -107.7967 167° South 456 525 33,000  Level Salt Lake Center
Thu 06:28:29 PM 46.8197 -107.7525 166° South 456 525 33,000  Level Salt Lake Center
Thu 06:29:31 PM 46.6750 -107.6989 166° South 452 520 33,000  Level Salt Lake Center
Thu 06:30:33 PM 46.5506 -107.6542 166° South 451 519 33,000  Level Salt Lake Center
Thu 06:31:35 PM 46.4203 -107.6058 166° South 452 520 33,000  Level Salt Lake Center
Thu 06:32:37 PM 46.3003 -107.5639 166° South 451 519 33,000  Level Salt Lake Center
Thu 06:33:40 PM 46.1686 -107.5175 166° South 453 521 33,000  Level Salt Lake Center
Thu 06:34:42 PM 46.0483 -107.4750 166° South 452 520 33,000  Level Salt Lake Center
Thu 06:35:44 PM 45.9167 -107.4294 166° South 454 522 33,000  Level Salt Lake Center
Thu 06:36:46 PM 45.7967 -107.3875 166° South 450 518 33,000  Level Salt Lake Center
Thu 06:37:48 PM 45.6667 -107.3414 166° South 448 516 33,000  Level Salt Lake Center
Thu 06:38:50 PM 45.5481 -107.3017 167° South 445 512 33,000  Level Salt Lake Center
Thu 06:39:52 PM 45.4189 -107.2572 166° South 444 511 33,000  Level Salt Lake Center
Thu 06:40:54 PM 45.2953 -107.2169 167° South 440 506 33,000  Level Salt Lake Center
Thu 06:41:56 PM 45.1747 -107.1764 167° South 440 506 33,000  Level Salt Lake Center
Thu 06:42:58 PM 45.0597 -107.1364 166° South 445 512 33,000  Level Salt Lake Center
Thu 06:44:00 PM 44.9242 -107.0911 167° South 447 514 33,000  Level Salt Lake Center
Thu 06:45:02 PM 44.8083 -107.0531 167° South 448 516 33,000  Level Salt Lake Center
Thu 06:46:04 PM 44.6714 -107.0192 170° South 445 512 33,000  Level Salt Lake Center
Thu 06:47:06 PM 44.5539 -106.9894 170° South 447 514 33,000  Level Salt Lake Center
Thu 06:48:08 PM 44.4375 -106.9592 169° South 447 514 33,000  Level Salt Lake Center
Thu 06:49:10 PM 44.3003 -106.9267 170° South 448 516 33,000  Level Salt Lake Center
Thu 06:50:12 PM 44.1822 -106.8967 170° South 450 518 33,000  Level Salt Lake Center
Thu 06:51:14 PM 44.0467 -106.8625 170° South 445 512 33,000  Level Salt Lake Center
Thu 06:52:16 PM 43.9294 -106.8339 170° South 446 513 33,000  Level Salt Lake Center
Thu 06:52:49 PM 43.8517 -106.8139 169° South 444 511 33,000  Level Denver Center
Thu 06:53:50 PM 43.7344 -106.7847 170° South 446 513 33,000  Level Denver Center
Thu 06:54:52 PM 43.5997 -106.7511 170° South 443 510 33,000  Level Denver Center
Thu 06:55:54 PM 43.4839 -106.7222 170° South 442 509 33,000  Level Denver Center
Thu 06:56:56 PM 43.3483 -106.6894 170° South 442 509 33,000  Level Denver Center
Thu 06:57:57 PM 43.2328 -106.6617 170° South 442 509 33,000  Level Denver Center
Thu 06:58:59 PM 43.1169 -106.6347 170° South 441 507 33,000  Level Denver Center
Thu 07:00:01 PM 43.0031 -106.6072 170° South 437 503 33,000  Level Denver Center
Thu 07:01:03 PM 42.8672 -106.5744 170° South 442 509 33,000  Level Denver Center
Thu 07:02:04 PM 42.7325 -106.5422 170° South 442 509 33,000  Level Denver Center
Thu 07:03:06 PM 42.6150 -106.5147 170° South 446 513 33,000  Level Denver Center
Thu 07:04:08 PM 42.5189 -106.4922 170° South 440 506 33,000  Level Denver Center
Thu 07:05:10 PM 42.3628 -106.4556 170° South 445 512 33,000  Level Denver Center
Thu 07:06:11 PM 42.2658 -106.4311 169° South 446 513 33,000  Level Denver Center
Thu 07:07:13 PM 42.1197 -106.3500 158° South 452 520 33,000  Level Denver Center
Thu 07:08:15 PM 41.9958 -106.2639 153° Southeast 452 520 33,000  Level Denver Center
Thu 07:09:17 PM 41.8889 -106.1906 153° Southeast 453 521 33,000  Level Denver Center
Thu 07:10:19 PM 41.7817 -106.1147 149° Southeast 455 524 33,000 -259 Level Denver Center
Thu 07:11:00 PM 41.7241 -106.0586 149° Southeast  Level FlightAware Approximate
Thu 07:12:22 PM 41.5472 -105.9522 153° Southeast 459 528 32,200  Level Denver Center
Thu 07:13:24 PM 41.4153 -105.8628 153° Southeast 476 548 30,000 -1,935 Descending Denver Center
Thu 07:14:26 PM 41.2975 -105.7819 153° Southeast 493 567 28,200 -1,452 Descending Denver Center
Thu 07:15:28 PM 41.1636 -105.6903 153° Southeast 487 560 27,000 -629 Descending Denver Center
Thu 07:16:30 PM 41.0589 -105.6203 153° Southeast 450 518 26,900 -629 Descending Denver Center
Thu 07:17:32 PM 40.9386 -105.5372 152° Southeast 432 497 25,700 -1,065 Descending Denver Center
Thu 07:18:34 PM 40.8389 -105.4703 153° Southeast 407 468 24,700 -1,268 Descending Denver Center
Thu 07:19:35 PM 40.7403 -105.4044 153° Southeast 398 458 23,100 -2,049 Descending Denver Center
Thu 07:20:37 PM 40.6492 -105.3419 153° Southeast 376 433 20,500 -2,565 Descending Denver Center
Thu 07:21:39 PM 40.5606 -105.2842 154° Southeast 358 412 17,800 -2,382 Descending Denver Center
Thu 07:22:53 PM 40.4631 -105.2142 151° Southeast 357 411 15,100 -1,632 Descending Denver Center
Thu 07:23:55 PM 40.3644 -105.1364 149° Southeast 334 384 14,100 -876 Descending Denver Center
Thu 07:25:10 PM 40.2581 -105.1047 167° South 321 369 13,100 -482 Descending Denver Center
Thu 07:26:12 PM 40.1747 -105.0986 177° South 298 343 13,000 -48 Descending Denver Center
Thu 07:27:14 PM 40.0953 -105.0956 178° South 267 307 13,000 -242 Level Denver Center
Thu 07:28:16 PM 40.0219 -105.0958 180° South 266 306 12,500 -919 Descending Denver Center
Thu 07:29:18 PM 39.9528 -105.0642 161° South 249 287 11,100 -1,161 Descending Denver Center
Thu 07:30:20 PM 39.8933 -105.0164 148° Southeast 253 291 10,100 -1,161 Descending Denver Center
Thu 07:31:22 PM 39.8472 -104.9664 140° Southeast 203 234 8,700 -1,113 Descending Denver Center
Thu 07:32:24 PM 39.8411 -104.8975 97° East 193 222 7,800 -871 Descending Denver Center

Login

Don't have an account? Register now (free) for customized features, flight alerts, and more!